createdAt,value
2022-10-16T00:03:17.454Z,1.30
2022-10-16T00:08:20.779Z,1.17
2022-10-16T00:13:22.767Z,1.17
2022-10-16T00:18:25.757Z,1.20
2022-10-16T00:23:28.840Z,1.37
2022-10-16T00:28:31.417Z,1.27
2022-10-16T00:33:33.228Z,1.13
2022-10-16T00:38:36.552Z,1.17
2022-10-16T00:43:41.693Z,1.13
2022-10-16T00:48:47.278Z,1.20
2022-10-16T00:53:50.798Z,1.33
2022-10-16T00:58:53.304Z,0.90
2022-10-16T01:03:55.582Z,1.33
2022-10-16T01:09:14.378Z,1.30
2022-10-16T01:14:22.969Z,1.10
2022-10-16T01:19:39.866Z,1.13
2022-10-16T01:29:54.620Z,1.60
2022-10-16T01:35:01.549Z,1.30
2022-10-16T01:40:10.662Z,1.37
2022-10-16T01:45:17.684Z,1.10
2022-10-16T01:50:21.774Z,1.30
2022-10-16T01:55:28.242Z,1.50
2022-10-16T02:00:32.876Z,1.53
2022-10-16T02:05:41.891Z,1.10
2022-10-16T02:10:44.009Z,1.03
2022-10-16T02:15:47.541Z,1.03
2022-10-16T02:20:53.891Z,1.27
2022-10-16T02:25:59.098Z,1.20
2022-10-16T02:31:06.159Z,1.20
2022-10-16T02:36:08.957Z,1.17
2022-10-16T02:41:11.133Z,1.20
2022-10-16T02:46:14.555Z,1.10
2022-10-16T02:51:16.613Z,1.10
2022-10-16T03:01:23.569Z,1.10
2022-10-16T03:06:25.647Z,1.40
2022-10-16T03:11:27.635Z,1.10
2022-10-16T03:16:31.076Z,1.03
2022-10-16T03:21:33.064Z,0.90
2022-10-16T03:26:35.119Z,1.30
2022-10-16T03:31:38.478Z,1.10
2022-10-16T03:36:40.790Z,1.20
2022-10-16T03:41:43.078Z,1.10
2022-10-16T03:46:46.382Z,1.30
2022-10-16T03:51:48.446Z,1.30
2022-10-16T03:56:50.440Z,1.30
2022-10-16T04:01:53.983Z,1.47
2022-10-16T04:06:55.636Z,1.37
2022-10-16T04:11:57.614Z,1.30
2022-10-16T04:17:00.993Z,1.10
2022-10-16T04:22:02.853Z,1.30
2022-10-16T04:27:05.053Z,1.67
2022-10-16T04:32:09.363Z,1.00
2022-10-16T04:37:11.242Z,1.30
2022-10-16T04:42:12.916Z,1.30
2022-10-16T04:47:16.683Z,1.20
2022-10-16T04:52:18.791Z,1.20
2022-10-16T04:57:21.065Z,1.30
2022-10-16T05:02:24.303Z,1.47
2022-10-16T05:07:26.564Z,1.50
2022-10-16T05:12:28.753Z,1.10
2022-10-16T05:17:31.793Z,1.60
2022-10-16T05:22:33.508Z,1.30
2022-10-16T05:27:35.567Z,1.23
2022-10-16T05:32:38.637Z,1.60
2022-10-16T05:37:40.573Z,1.43
2022-10-16T05:42:42.730Z,1.47
2022-10-16T05:47:46.652Z,1.60
2022-10-16T05:52:48.703Z,2.00
2022-10-16T05:57:50.431Z,1.80
2022-10-16T06:02:54.576Z,2.23
2022-10-16T06:07:56.900Z,1.90
2022-10-16T06:12:58.745Z,1.80
2022-10-16T06:18:02.254Z,1.87
2022-10-16T06:23:04.286Z,1.83
2022-10-16T06:28:06.181Z,1.80
2022-10-16T06:33:09.757Z,1.70
2022-10-16T06:38:11.441Z,1.90
2022-10-16T06:43:13.501Z,2.27
2022-10-16T06:48:16.530Z,2.63
2022-10-16T06:53:18.324Z,2.03
2022-10-16T06:58:21.985Z,1.30
2022-10-16T07:03:27.454Z,1.47
2022-10-16T07:08:33.365Z,1.37
2022-10-16T07:13:37.597Z,1.47
2022-10-16T07:18:42.333Z,1.50
2022-10-16T07:23:45.326Z,1.10
2022-10-16T07:28:49.034Z,1.10
2022-10-16T07:33:52.913Z,1.13
2022-10-16T07:38:58.840Z,0.80
2022-10-16T07:44:06.230Z,1.17
2022-10-16T07:49:13.813Z,0.90
2022-10-16T07:54:17.695Z,1.10
2022-10-16T07:59:24.352Z,1.03
2022-10-16T08:04:31.972Z,0.70
2022-10-16T08:09:34.599Z,0.80
2022-10-16T08:14:36.870Z,0.93
2022-10-16T08:19:40.272Z,0.70
2022-10-16T08:24:42.193Z,0.87
2022-10-16T08:29:44.004Z,1.10
2022-10-16T08:34:47.395Z,0.70
2022-10-16T08:39:49.395Z,0.90
2022-10-16T08:45:08.284Z,0.80
2022-10-16T08:50:14.123Z,0.90
2022-10-16T08:55:32.462Z,0.83
2022-10-16T09:00:34.922Z,0.70
2022-10-16T09:05:53.753Z,0.90
2022-10-16T09:10:59.768Z,0.70
2022-10-16T09:16:16.317Z,0.70
2022-10-16T09:21:23.156Z,0.80
2022-10-16T09:26:25.127Z,0.87
2022-10-16T09:31:27.294Z,0.80
2022-10-16T09:36:41.194Z,0.70
2022-10-16T09:41:44.546Z,0.70
2022-10-16T09:46:46.370Z,0.57
2022-10-16T09:51:49.571Z,0.80
2022-10-16T09:56:51.216Z,0.40
2022-10-16T10:01:55.145Z,0.40
2022-10-16T10:06:59.565Z,0.82
2022-10-16T10:17:15.860Z,0.55
2022-10-16T10:22:44.107Z,0.60
2022-10-16T10:28:01.304Z,0.50
2022-10-16T10:33:20.328Z,0.57
2022-10-16T10:38:32.431Z,0.60
2022-10-16T10:43:48.899Z,0.45
2022-10-16T10:49:08.643Z,0.50
2022-10-16T10:54:21.750Z,0.60
2022-10-16T10:59:49.881Z,0.40
2022-10-16T11:05:16.040Z,0.55
2022-10-16T11:10:23.881Z,0.30
2022-10-16T11:15:30.117Z,0.43
2022-10-16T11:20:35.492Z,0.52
2022-10-16T11:25:40.956Z,0.40
2022-10-16T11:30:46.920Z,0.43
2022-10-16T11:35:54.136Z,0.52
2022-10-16T11:41:02.239Z,0.40
2022-10-16T11:46:10.195Z,0.40
2022-10-16T11:51:17.389Z,0.40
2022-10-16T11:56:22.910Z,0.40
2022-10-16T12:01:33.266Z,0.65
2022-10-16T12:06:38.414Z,0.40
2022-10-16T12:11:41.888Z,0.20
2022-10-16T12:16:53.247Z,0.50
2022-10-16T12:21:58.328Z,0.28
2022-10-16T12:27:02.628Z,0.30
2022-10-16T12:32:06.563Z,0.30
2022-10-16T12:37:12.290Z,0.60
2022-10-16T12:42:33.924Z,0.30
2022-10-16T12:47:49.328Z,0.20
2022-10-16T12:52:51.407Z,0.50
2022-10-16T12:58:32.457Z,0.40
2022-10-16T13:04:05.809Z,0.43
2022-10-16T13:09:19.146Z,0.50
2022-10-16T13:19:58.117Z,0.47
2022-10-16T13:25:14.843Z,2.50
2022-10-16T13:30:21.487Z,1.40
2022-10-16T13:35:25.520Z,0.50
2022-10-16T13:40:27.489Z,0.70
2022-10-16T13:45:31.238Z,0.40
2022-10-16T13:50:33.997Z,0.40
2022-10-16T13:55:39.810Z,0.30
2022-10-16T14:00:55.010Z,0.60
2022-10-16T14:06:01.982Z,0.95
2022-10-16T14:11:03.714Z,0.70
2022-10-16T14:16:16.287Z,0.47
2022-10-16T14:21:20.391Z,0.50
2022-10-16T14:26:25.363Z,0.40
2022-10-16T14:31:31.971Z,0.40
2022-10-16T14:36:35.426Z,0.40
2022-10-16T14:41:45.399Z,0.28
2022-10-16T14:46:49.067Z,0.43
2022-10-16T14:51:51.160Z,0.70
2022-10-16T14:56:55.907Z,0.40
2022-10-16T15:01:59.506Z,0.50
2022-10-16T15:07:01.636Z,0.40
2022-10-16T15:12:04.134Z,0.43
2022-10-16T15:17:10.163Z,0.50
2022-10-16T15:22:12.713Z,0.40
2022-10-16T15:27:14.634Z,0.43
2022-10-16T15:32:18.227Z,0.53
2022-10-16T15:37:20.012Z,0.40
2022-10-16T15:42:22.110Z,0.43
2022-10-16T15:47:26.180Z,0.33
2022-10-16T15:52:28.307Z,0.30
2022-10-16T15:57:30.321Z,0.40
2022-10-16T16:02:33.836Z,0.47
2022-10-16T16:07:35.978Z,0.50
2022-10-16T16:12:38.881Z,0.43
2022-10-16T16:17:42.364Z,0.60
2022-10-16T16:22:44.299Z,0.80
2022-10-16T16:27:46.076Z,0.70
2022-10-16T16:32:49.529Z,0.97
2022-10-16T16:37:51.644Z,1.00
2022-10-16T16:42:53.318Z,1.40
2022-10-16T16:47:56.803Z,1.20
2022-10-16T16:52:58.538Z,1.47
2022-10-16T16:58:00.545Z,1.93
2022-10-16T17:03:04.044Z,0.90
2022-10-16T17:08:07.967Z,1.00
2022-10-16T17:13:09.750Z,0.90
2022-10-16T17:18:13.393Z,1.17
2022-10-16T17:23:16.171Z,1.30
2022-10-16T17:28:18.390Z,1.30
2022-10-16T17:33:21.447Z,1.10
2022-10-16T17:38:23.136Z,1.00
2022-10-16T17:43:24.917Z,1.37
2022-10-16T17:48:27.981Z,1.57
2022-10-16T17:53:30.119Z,1.30
2022-10-16T17:58:32.324Z,1.23
2022-10-16T18:03:35.370Z,1.23
2022-10-16T18:08:37.696Z,1.10
2022-10-16T18:13:39.633Z,1.10
2022-10-16T18:18:44.863Z,1.00
2022-10-16T18:23:51.714Z,1.27
2022-10-16T18:28:55.878Z,1.40
2022-10-16T18:34:00.079Z,1.00
2022-10-16T18:39:04.540Z,1.13
2022-10-16T18:44:08.006Z,1.50
2022-10-16T18:49:12.032Z,1.30
2022-10-16T18:54:14.800Z,2.03
2022-10-16T18:59:17.515Z,1.60
2022-10-16T19:04:21.092Z,1.00
2022-10-16T19:09:24.146Z,1.20
2022-10-16T19:14:26.664Z,1.27
2022-10-16T19:19:30.236Z,1.63
2022-10-16T19:24:32.204Z,1.10
2022-10-16T19:29:34.015Z,1.20
2022-10-16T19:34:37.448Z,1.40
2022-10-16T19:39:39.341Z,1.70
2022-10-16T19:44:41.401Z,2.17
2022-10-16T19:49:45.024Z,1.70
2022-10-16T19:54:46.646Z,1.93
2022-10-16T19:59:51.669Z,1.70
2022-10-16T20:04:55.114Z,2.13
2022-10-16T20:09:56.945Z,1.60
2022-10-16T20:14:58.607Z,1.47
2022-10-16T20:20:02.227Z,1.20
2022-10-16T20:25:08.451Z,1.70
2022-10-16T20:30:12.414Z,1.37
2022-10-16T20:35:15.794Z,1.23
2022-10-16T20:40:17.468Z,1.37
2022-10-16T20:45:19.223Z,1.30
2022-10-16T20:50:22.714Z,1.20
2022-10-16T20:55:25.018Z,1.60
2022-10-16T21:00:27.283Z,1.17
2022-10-16T21:05:30.707Z,1.63
2022-10-16T21:10:32.844Z,1.50
2022-10-16T21:15:34.865Z,1.33
2022-10-16T21:20:42.453Z,1.70
2022-10-16T21:25:49.037Z,1.60
2022-10-16T21:30:51.001Z,1.83
2022-10-16T21:35:55.177Z,1.60
2022-10-16T21:40:57.509Z,1.47
2022-10-16T21:45:59.469Z,1.70
2022-10-16T21:51:02.898Z,1.27
2022-10-16T21:56:05.458Z,1.37
2022-10-16T22:01:08.128Z,1.53
2022-10-16T22:06:13.546Z,1.50
2022-10-16T22:11:22.060Z,1.47
2022-10-16T22:16:26.837Z,1.40
2022-10-16T22:21:30.326Z,1.37
2022-10-16T22:26:32.329Z,1.20
2022-10-16T22:31:34.796Z,1.67
2022-10-16T22:36:37.836Z,1.50
2022-10-16T22:41:39.921Z,1.60
2022-10-16T22:46:42.204Z,1.57
2022-10-16T22:51:45.276Z,1.30
2022-10-16T22:56:47.496Z,1.50
2022-10-16T23:01:49.663Z,1.63
2022-10-16T23:06:53.076Z,1.80
2022-10-16T23:11:55.088Z,1.60
2022-10-16T23:16:56.894Z,1.77
2022-10-16T23:22:00.504Z,1.60
2022-10-16T23:27:02.258Z,1.53
2022-10-16T23:32:04.534Z,1.60
2022-10-16T23:37:08.043Z,1.60
2022-10-16T23:42:10.089Z,1.50
2022-10-16T23:47:11.787Z,1.63
2022-10-16T23:52:15.271Z,1.73
2022-10-16T23:57:17.334Z,1.67
